Time;durP1;ratioP1;P1;durP2;ratioP2;P2;SDS_P1;SDS_P2;PMS_P1;PMS_P2;Temp;Humidity;BMP_temperature;BMP_pressure;BME280_temperature;BME280_humidity;BME280_pressure;Samples;Min_cycle;Max_cycle;Signal;HPM_P1;HPM_P2
2022/08/21 00:00:45;;;;;;;;;;;;;;;19.71;92.46;99992.18;1711403;82;21204;-68
2022/08/21 00:03:12;;;;;;;18.67;5.60;;;;;;;19.69;92.36;99991.08;1708604;83;20109;-73
2022/08/21 00:05:47;;;;;;;22.98;5.33;;;;;;;19.64;92.50;99988.32;1712119;83;21515;-68
2022/08/21 00:08:14;;;;;;;19.62;5.17;;;;;;;19.65;92.52;100000.23;1704295;83;21516;-70
2022/08/21 00:10:42;;;;;;;19.37;4.83;;;;;;;19.69;92.40;100001.09;1704501;82;21034;-69
2022/08/21 00:13:12;;;;;;;18.65;5.92;;;;;;;19.70;92.31;100000.80;1686396;83;21119;-68
2022/08/21 00:15:41;;;;;;;18.65;5.62;;;;;;;19.72;92.20;100010.02;1679572;84;22036;-68
2022/08/21 00:18:10;;;;;;;25.82;5.85;;;;;;;19.73;92.06;100000.88;1681000;84;21010;-70
2022/08/21 00:20:41;;;;;;;28.95;4.92;;;;;;;19.73;91.92;99994.92;1686913;84;21530;-70
2022/08/21 00:23:07;;;;;;;16.10;4.58;;;;;;;19.71;91.81;100000.29;1676663;84;21035;-69
2022/08/21 00:25:35;;;;;;;16.85;4.33;;;;;;;19.68;91.83;100004.30;1686716;85;21150;-67
2022/08/21 00:28:03;;;;;;;16.00;5.08;;;;;;;19.61;91.97;99997.77;1677546;85;21075;-68
2022/08/21 00:30:31;;;;;;;23.07;5.00;;;;;;;19.59;92.18;100001.78;1676678;85;21066;-68
2022/08/21 00:32:58;;;;;;;16.10;5.17;;;;;;;19.55;92.30;100002.02;1676150;85;21185;-69
2022/08/21 00:35:30;;;;;;;21.00;4.95;;;;;;;19.51;92.44;99996.86;1701305;83;21053;-67
2022/08/21 00:37:57;;;;;;;21.20;4.85;;;;;;;19.44;92.63;100000.59;1699860;83;21053;-69
2022/08/21 00:40:29;;;;;;;21.57;5.35;;;;;;;19.39;92.87;99996.47;1704901;83;20995;-67
2022/08/21 00:42:57;;;;;;;14.73;4.83;;;;;;;19.34;93.16;99995.06;1701318;83;21018;-68
2022/08/21 00:45:24;;;;;;;18.48;4.55;;;;;;;19.28;93.37;99997.98;1688431;83;20998;-69
2022/08/21 00:47:53;;;;;;;19.55;5.00;;;;;;;19.23;93.62;100004.13;1681581;84;21017;-67
2022/08/21 00:50:20;;;;;;;14.33;5.00;;;;;;;19.16;93.95;99998.94;1651890;86;20970;-69
2022/08/21 00:52:46;;;;;;;13.83;4.70;;;;;;;19.11;94.25;100001.58;1653004;85;21526;-70
2022/08/21 00:55:13;;;;;;;22.45;5.45;;;;;;;19.06;94.43;99998.30;1649658;85;22427;-69
2022/08/21 00:57:47;;;;;;;20.08;5.33;;;;;;;19.03;94.66;99995.28;1668957;85;21618;-68
2022/08/21 01:00:19;;;;;;;22.27;5.05;;;;;;;19.00;94.81;100003.88;1654493;85;21140;-68
2022/08/21 01:02:46;;;;;;;16.65;5.17;;;;;;;18.97;94.95;100003.05;1691166;84;21013;-68
2022/08/21 01:05:12;;;;;;;22.22;5.97;;;;;;;18.95;95.06;99991.66;1712201;82;21006;-72
2022/08/21 01:07:41;;;;;;;14.03;4.87;;;;;;;18.94;95.14;99996.25;1721285;82;21568;-68
2022/08/21 01:10:08;;;;;;;21.17;5.50;;;;;;;18.92;95.17;99997.04;1707371;82;21025;-69
2022/08/21 01:12:35;;;;;;;22.42;5.12;;;;;;;18.91;95.18;99992.72;1727508;82;20970;-69
2022/08/21 01:15:05;;;;;;;16.45;4.45;;;;;;;18.92;95.22;100000.28;1724061;82;21022;-68
2022/08/21 01:17:32;;;;;;;17.37;4.75;;;;;;;18.92;95.28;99998.93;1713709;82;21458;-68
2022/08/21 01:20:00;;;;;;;16.30;5.20;;;;;;;18.93;95.21;100001.90;1676788;84;21059;-69
2022/08/21 01:22:28;;;;;;;13.08;5.00;;;;;;;18.92;95.16;100000.28;1676305;84;21153;-69
2022/08/21 01:24:54;;;;;;;13.53;5.10;;;;;;;18.91;95.21;99998.12;1648798;85;21606;-68
2022/08/21 01:27:21;;;;;;;;;;;;;;;18.90;95.22;99999.17;1644284;85;21047;-68
2022/08/21 01:29:52;;;;;;;14.45;4.35;;;;;;;18.91;95.22;99995.94;1648080;85;20127;-68
2022/08/21 01:32:19;;;;;;;18.02;5.60;;;;;;;18.82;95.45;99996.39;1649236;85;21114;-69
2022/08/21 01:34:50;;;;;;;20.95;4.83;;;;;;;18.77;95.57;100001.69;1649194;85;21542;-69
2022/08/21 01:37:18;;;;;;;25.40;4.22;;;;;;;18.76;95.47;100003.28;1659644;85;21019;-70
2022/08/21 01:39:46;;;;;;;20.32;4.05;;;;;;;18.73;95.50;100000.55;1654567;85;21016;-68
2022/08/21 01:42:13;;;;;;;15.03;3.80;;;;;;;18.71;95.53;99995.95;1657481;85;21106;-68
2022/08/21 01:44:41;;;;;;;14.83;4.17;;;;;;;18.69;95.58;99991.33;1647719;85;21014;-69
2022/08/21 01:47:12;;;;;;;24.92;4.65;;;;;;;18.66;95.66;99994.52;1654467;83;21136;-68
2022/08/21 01:49:40;;;;;;;19.57;4.67;;;;;;;18.66;95.79;100001.27;1636566;87;21041;-68
2022/08/21 01:52:08;;;;;;;18.62;4.67;;;;;;;18.67;95.76;99999.67;1674342;84;21026;-69
2022/08/21 01:54:35;;;;;;;17.45;5.28;;;;;;;18.66;95.88;100004.78;1658800;85;21070;-67
2022/08/21 01:57:04;;;;;;;13.35;4.28;;;;;;;18.61;95.83;99993.09;1673641;84;21073;-68
2022/08/21 01:59:33;;;;;;;13.00;4.85;;;;;;;18.57;96.33;99990.62;1677477;84;21502;-68
2022/08/21 02:01:59;;;;;;;18.50;4.03;;;;;;;18.54;96.44;99996.53;1680229;84;21021;-69
2022/08/21 02:04:25;;;;;;;17.95;4.37;;;;;;;18.53;96.59;99993.53;1676428;84;20983;-69
2022/08/21 02:06:52;;;;;;;14.60;4.28;;;;;;;18.55;96.67;99986.00;1678109;84;21078;-68
2022/08/21 02:09:21;;;;;;;20.08;4.75;;;;;;;18.57;96.55;99980.66;1756937;79;21065;-68
2022/08/21 02:11:48;;;;;;;13.40;4.65;;;;;;;18.61;96.44;99984.48;1798950;79;20970;-69
2022/08/21 02:14:15;;;;;;;22.48;4.80;;;;;;;18.63;96.23;99988.30;1774461;79;20985;-69
2022/08/21 02:16:44;;;;;;;15.30;3.90;;;;;;;18.66;96.04;99986.42;1796572;78;21028;-71
2022/08/21 02:19:14;;;;;;;17.90;4.78;;;;;;;18.69;95.94;99984.58;1801127;78;20970;-67
2022/08/21 02:21:42;;;;;;;19.60;4.50;;;;;;;18.70;95.58;99975.40;1806698;78;21030;-68
2022/08/21 02:24:10;;;;;;;14.28;4.75;;;;;;;18.72;95.53;99978.66;1768816;78;20957;-69
2022/08/21 02:26:36;;;;;;;17.62;4.53;;;;;;;18.75;95.31;99981.41;1766264;80;20953;-69
2022/08/21 02:29:04;;;;;;;9.48;4.50;;;;;;;18.40;94.91;99921.85;1765877;80;21054;-68
2022/08/21 02:31:31;;;;;;;9.55;4.08;;;;;;;18.73;94.76;99979.50;1767947;80;20981;-70
2022/08/21 02:33:57;;;;;;;18.90;5.22;;;;;;;18.71;94.76;99982.45;1756014;80;21513;-69
2022/08/21 02:36:24;;;;;;;10.25;4.15;;;;;;;18.69;94.71;99979.19;1763708;80;21008;-68
2022/08/21 02:38:50;;;;;;;;;;;;;;;18.70;94.70;99978.64;1775002;80;21022;-68
2022/08/21 02:41:20;;;;;;;16.35;4.75;;;;;;;18.69;94.62;99980.53;1774286;80;20137;-68
2022/08/21 02:43:48;;;;;;;25.02;4.58;;;;;;;18.64;94.72;99982.62;1784721;80;20989;-70
2022/08/21 02:46:18;;;;;;;16.77;4.30;;;;;;;18.62;94.66;99986.10;1770163;80;21502;-69
2022/08/21 02:48:46;;;;;;;15.60;4.65;;;;;;;18.63;94.59;99992.34;1768655;80;20995;-68
2022/08/21 02:51:17;;;;;;;23.02;5.15;;;;;;;18.62;94.55;99987.99;1774802;80;21073;-69
2022/08/21 02:53:45;;;;;;;18.90;5.10;;;;;;;18.60;94.63;99984.73;1767713;80;20967;-68
2022/08/21 02:56:15;;;;;;;11.00;4.40;;;;;;;18.59;94.62;99993.87;1762887;80;21102;-68
2022/08/21 02:58:50;;;;;;;18.07;5.72;;;;;;;18.54;95.02;99993.30;1774265;80;21013;-67
2022/08/21 03:01:17;;;;;;;21.00;6.65;;;;;;;18.50;94.95;99994.86;1779699;79;21056;-68
2022/08/21 03:03:46;;;;;;;23.12;5.08;;;;;;;18.45;95.08;99998.29;1802127;79;21041;-67
2022/08/21 03:06:15;;;;;;;22.75;4.35;;;;;;;18.44;95.01;99990.44;1771580;80;21012;-68
2022/08/21 03:08:45;;;;;;;18.02;4.70;;;;;;;18.44;95.06;99991.78;1776337;79;21057;-68
2022/08/21 03:11:13;;;;;;;23.35;5.60;;;;;;;18.45;95.04;99996.94;1775615;79;21515;-68
2022/08/21 03:13:39;;;;;;;13.48;3.92;;;;;;;18.45;94.89;99996.94;1808878;79;21001;-67
2022/08/21 03:16:06;;;;;;;21.70;4.60;;;;;;;18.46;94.85;99999.94;1786729;79;21058;-67
2022/08/21 03:18:33;;;;;;;17.25;4.30;;;;;;;18.48;94.62;99999.70;1784605;80;21917;-67
2022/08/21 03:20:59;;;;;;;20.40;4.35;;;;;;;18.48;94.45;99995.65;1783258;80;21513;-68
2022/08/21 03:23:25;;;;;;;;;;;;;;;18.48;94.14;100001.86;1768196;79;21004;-68
2022/08/21 03:25:52;;;;;;;14.73;4.65;;;;;;;18.49;93.84;99998.61;1768726;80;20206;-68
2022/08/21 03:28:21;;;;;;;15.38;4.08;;;;;;;18.45;93.99;100001.53;1767496;80;20997;-68
2022/08/21 03:30:50;;;;;;;17.32;3.90;;;;;;;18.45;93.80;100003.69;1766138;80;21065;-68
2022/08/21 03:33:18;;;;;;;14.03;3.37;;;;;;;18.47;93.66;100005.60;1766154;80;21000;-68
2022/08/21 03:35:50;;;;;;;16.27;4.83;;;;;;;18.51;93.29;99998.38;1772404;80;21330;-68
2022/08/21 03:38:16;;;;;;;21.57;4.05;;;;;;;18.55;92.60;99995.45;1770702;80;21106;-69
2022/08/21 03:40:43;;;;;;;11.15;3.80;;;;;;;18.57;92.29;100004.95;1785575;77;21566;-69
2022/08/21 03:43:10;;;;;;;17.07;5.60;;;;;;;18.57;92.28;100004.11;1782499;78;21009;-69
2022/08/21 03:45:37;;;;;;;22.37;4.45;;;;;;;18.65;92.16;100022.05;1785122;78;21522;-68
2022/08/21 03:48:05;;;;;;;21.68;3.65;;;;;;;18.84;92.01;100015.85;1792979;79;21105;-69
2022/08/21 03:50:37;;;;;;;14.30;3.47;;;;;;;19.16;90.90;100019.20;1788327;79;21004;-68
2022/08/21 03:53:03;;;;;;;19.65;3.65;;;;;;;19.54;89.05;100024.19;1783613;79;20994;-72
2022/08/21 03:55:30;;;;;;;19.35;4.45;;;;;;;19.94;85.93;100025.66;1786943;79;21021;-68
2022/08/21 03:57:56;;;;;;;21.17;4.10;;;;;;;20.26;84.46;100025.36;1733139;78;21577;-70
2022/08/21 04:00:24;;;;;;;12.98;4.05;;;;;;;20.57;82.52;100022.32;1711817;82;21179;-68
2022/08/21 04:05:55;;;;;;;17.80;4.80;;;;;;;21.44;78.07;100015.92;1804893;78;22392;-70
2022/08/21 04:08:22;;;;;;;13.35;3.72;;;;;;;21.78;76.27;100006.73;1782675;79;20998;-70
2022/08/21 04:10:52;;;;;;;15.70;3.33;;;;;;;22.18;73.54;100008.34;1775669;79;21523;-69
2022/08/21 04:13:20;;;;;;;16.40;3.87;;;;;;;22.46;71.54;100012.39;1673073;80;21131;-68
2022/08/21 04:15:46;;;;;;;17.90;3.22;;;;;;;22.69;69.18;100019.11;1650384;85;21024;-68
2022/08/21 04:18:14;;;;;;;15.58;3.90;;;;;;;22.83;68.60;100013.09;1659789;85;21080;-67
2022/08/21 04:20:42;;;;;;;19.55;3.80;;;;;;;22.99;67.42;100013.84;1620425;84;21141;-66
2022/08/21 04:23:08;;;;;;;11.68;2.33;;;;;;;23.24;66.57;100015.64;1577519;88;21136;-68
2022/08/21 04:25:35;;;;;;;17.65;4.90;;;;;;;23.54;64.30;100011.12;1582787;89;21114;-68
2022/08/21 04:28:05;;;;;;;13.62;3.05;;;;;;;23.79;62.78;100006.89;1564086;86;21180;-68
2022/08/21 04:30:31;;;;;;;13.80;3.25;;;;;;;24.00;62.41;100018.97;1548153;90;21638;-68
2022/08/21 04:32:58;;;;;;;13.05;2.42;;;;;;;24.22;61.06;100008.94;1550299;90;21162;-69
2022/08/21 04:35:27;;;;;;;19.32;2.65;;;;;;;24.15;59.39;100017.47;1619552;83;21597;-68
2022/08/21 04:37:54;;;;;;;14.33;4.20;;;;;;;23.92;60.72;100022.28;1666422;84;21409;-67
2022/08/21 04:40:24;;;;;;;13.88;3.62;;;;;;;23.93;60.78;100014.39;1669788;84;21190;-68
2022/08/21 04:42:55;;;;;;;19.05;3.98;;;;;;;24.23;60.21;100034.53;1674259;83;21086;-67
2022/08/21 04:45:27;;;;;;;13.75;2.25;;;;;;;24.60;58.11;100035.83;1679971;84;21636;-68
2022/08/21 04:47:58;;;;;;;12.73;3.25;;;;;;;24.82;57.10;100034.48;1631574;84;21184;-70
2022/08/21 04:50:53;;;;;;;11.03;2.87;;;;;;;25.00;56.33;100024.18;1640941;86;21078;-69
2022/08/21 04:53:34;;;;;;;12.37;3.12;;;;;;;25.26;55.40;100027.97;1637387;86;20999;-67
2022/08/21 04:56:05;;;;;;;13.58;1.75;;;;;;;25.13;55.27;100010.91;1670745;82;21101;-68
2022/08/21 04:58:33;;;;;;;19.98;4.05;;;;;;;25.13;54.54;100029.47;1667668;84;21110;-71
2022/08/21 05:01:02;;;;;;;17.12;4.17;;;;;;;24.76;55.31;100017.94;1661985;84;21100;-66
2022/08/21 05:03:31;;;;;;;12.35;2.77;;;;;;;24.67;56.47;100019.92;1719200;82;21128;-69
2022/08/21 05:05:59;;;;;;;10.88;2.70;;;;;;;25.01;55.94;100003.17;1680938;83;21517;-70
2022/08/21 05:08:27;;;;;;;15.32;2.95;;;;;;;25.41;54.74;100035.94;1694663;82;21069;-69
2022/08/21 05:10:55;;;;;;;12.47;2.62;;;;;;;25.56;53.22;100011.70;1650576;83;21516;-69
2022/08/21 05:13:22;;;;;;;20.77;2.98;;;;;;;25.49;52.85;100017.28;1604218;88;20979;-69
2022/08/21 05:15:48;;;;;;;13.62;3.37;;;;;;;25.09;53.72;100014.81;1653933;84;21071;-68
2022/08/21 05:18:16;;;;;;;14.87;3.15;;;;;;;24.64;55.52;100025.17;1670385;82;21081;-67
2022/08/21 05:20:44;;;;;;;16.95;2.70;;;;;;;24.47;55.95;100019.59;1661923;84;21649;-70
2022/08/21 05:23:14;;;;;;;17.02;3.22;;;;;;;24.35;56.30;100027.89;1660894;84;21454;-67
2022/08/21 05:25:41;;;;;;;14.40;2.80;;;;;;;24.13;57.41;100024.27;1756937;78;21141;-68
2022/08/21 05:28:07;;;;;;;16.82;2.72;;;;;;;24.23;57.58;100022.83;1778173;78;21025;-69
2022/08/21 05:30:35;;;;;;;21.77;3.40;;;;;;;24.59;56.45;100017.84;1788673;78;20998;-69
2022/08/21 05:33:05;;;;;;;9.30;3.02;;;;;;;25.00;54.54;100016.00;1724471;80;21707;-67
2022/08/21 05:35:32;;;;;;;14.15;3.72;;;;;;;24.94;54.45;100018.54;1738872;80;21041;-72
2022/08/21 05:38:00;;;;;;;14.55;3.80;;;;;;;24.67;55.54;100025.38;1754618;80;21050;-73
2022/08/21 05:40:27;;;;;;;17.37;3.77;;;;;;;24.52;55.48;100020.66;1715343;80;21055;-71
2022/08/21 05:42:55;;;;;;;15.43;3.40;;;;;;;24.57;55.42;100011.88;1695531;82;21111;-69
2022/08/21 05:45:29;;;;;;;15.03;2.77;;;;;;;24.56;55.78;100025.23;1678979;82;21613;-70
2022/08/21 05:47:56;;;;;;;14.65;3.08;;;;;;;24.77;55.35;100016.30;1705420;82;21207;-68
2022/08/21 05:50:22;;;;;;;14.78;3.40;;;;;;;25.15;54.17;100013.63;1691054;84;21442;-71
2022/08/21 05:52:48;;;;;;;11.18;2.52;;;;;;;25.49;53.33;100009.09;1686886;84;21023;-68
2022/08/21 05:55:14;;;;;;;19.23;3.72;;;;;;;25.58;51.79;100005.93;1679390;84;21050;-70
2022/08/21 05:57:41;;;;;;;16.02;4.03;;;;;;;25.59;52.52;100002.91;1668459;82;21172;-68
2022/08/21 06:00:12;;;;;;;17.10;3.08;;;;;;;25.64;52.25;100012.95;1653884;85;21577;-71
2022/08/21 06:02:42;;;;;;;19.62;3.33;;;;;;;25.52;51.91;100012.58;1627223;85;21124;-69
2022/08/21 06:05:08;;;;;;;22.20;2.85;;;;;;;25.39;52.71;100017.69;1619859;87;21079;-71
2022/08/21 06:07:34;;;;;;;11.05;2.65;;;;;;;25.45;52.16;100015.13;1613761;87;21006;-69
2022/08/21 06:10:01;;;;;;;15.43;2.70;;;;;;;25.31;52.47;100007.98;1634865;84;21134;-69
2022/08/21 06:12:27;;;;;;;14.18;3.33;;;;;;;25.19;52.68;100025.56;1653795;84;22125;-69
2022/08/21 06:14:53;;;;;;;11.60;2.95;;;;;;;25.33;52.90;100016.67;1682942;84;21018;-70
2022/08/21 06:17:20;;;;;;;10.98;3.05;;;;;;;25.52;52.06;100012.58;1650876;83;21109;-68
2022/08/21 06:19:50;;;;;;;11.65;3.10;;;;;;;25.61;51.85;100013.53;1668438;85;21509;-69
2022/08/21 06:22:17;;;;;;;14.03;3.25;;;;;;;25.83;51.53;100009.63;1669319;85;22206;-67
2022/08/21 06:24:43;;;;;;;11.50;2.65;;;;;;;25.92;51.53;100000.77;1683970;83;21695;-69
2022/08/21 06:27:10;;;;;;;21.77;3.33;;;;;;;26.04;50.73;100001.12;1682658;83;21059;-69
2022/08/21 06:29:38;;;;;;;9.45;2.25;;;;;;;26.25;50.44;100007.02;1703214;83;21448;-72
2022/08/21 06:32:07;;;;;;;12.60;4.12;;;;;;;26.55;49.68;100000.73;1651716;83;21077;-70
2022/08/21 06:34:40;;;;;;;18.95;3.08;;;;;;;26.66;49.33;99996.71;1642605;85;21025;-69
2022/08/21 06:37:07;;;;;;;15.58;3.02;;;;;;;26.76;49.46;99995.69;1706874;81;21540;-72
2022/08/21 06:39:35;;;;;;;13.93;2.87;;;;;;;26.94;49.15;99992.02;1737001;81;21089;-69
2022/08/21 06:42:01;;;;;;;14.10;2.77;;;;;;;27.08;48.34;99993.92;1715612;81;22032;-70
2022/08/21 06:44:30;;;;;;;10.18;3.25;;;;;;;27.22;48.34;99987.88;1725608;81;20982;-69
2022/08/21 06:46:56;;;;;;;18.87;3.80;;;;;;;27.32;47.63;99990.39;1704253;83;20943;-69
2022/08/21 06:49:24;;;;;;;19.52;2.65;;;;;;;27.38;47.54;99987.78;1702684;83;21092;-69
2022/08/21 06:51:50;;;;;;;14.78;2.95;;;;;;;27.32;47.77;99987.66;1648193;83;21106;-69
2022/08/21 06:54:17;;;;;;;12.15;2.65;;;;;;;27.24;48.20;99989.73;1633284;85;21037;-69
2022/08/21 06:56:43;;;;;;;17.37;3.80;;;;;;;27.11;48.30;99987.28;1641508;83;21067;-72
2022/08/21 06:59:09;;;;;;;13.00;3.83;;;;;;;26.91;48.95;99989.89;1646006;85;21038;-68
2022/08/21 07:01:36;;;;;;;14.73;2.92;;;;;;;26.70;49.80;99992.81;1678816;82;21005;-70
2022/08/21 07:04:04;;;;;;;23.10;4.17;;;;;;;26.46;50.03;99988.31;1690929;83;21047;-69
2022/08/21 07:06:31;;;;;;;12.07;3.42;;;;;;;26.30;50.66;99983.72;1702535;83;21124;-68
2022/08/21 07:08:57;;;;;;;17.25;3.58;;;;;;;26.46;50.71;99985.59;1721573;83;20989;-72
2022/08/21 07:11:25;;;;;;;20.52;4.60;;;;;;;26.76;49.99;99986.92;1718558;83;21035;-72
2022/08/21 07:13:53;;;;;;;14.45;3.52;;;;;;;26.89;49.34;99979.02;1682831;82;21089;-70
2022/08/21 07:16:21;;;;;;;17.00;3.10;;;;;;;26.79;50.11;99981.42;1644459;85;21430;-70
2022/08/21 07:18:48;;;;;;;18.37;3.15;;;;;;;26.50;50.15;99983.06;1687629;84;21053;-69
2022/08/21 07:21:15;;;;;;;13.28;3.60;;;;;;;26.15;51.57;99977.98;1679723;81;21559;-73
2022/08/21 07:23:49;;;;;;;15.05;3.08;;;;;;;25.92;51.78;99975.66;1676228;84;21485;-70
2022/08/21 07:26:20;;;;;;;16.70;3.58;;;;;;;25.80;52.76;99971.19;1694686;84;21501;-69
2022/08/21 07:28:48;;;;;;;19.62;3.35;;;;;;;25.60;52.95;99973.16;1739807;80;21577;-71
2022/08/21 07:31:18;;;;;;;13.00;3.70;;;;;;;25.46;54.11;99969.55;1756219;80;21035;-69
2022/08/21 07:33:45;;;;;;;17.48;3.72;;;;;;;25.34;54.70;99963.20;1748089;80;21085;-68
2022/08/21 07:36:12;;;;;;;11.80;3.65;;;;;;;25.28;54.25;99972.57;1692632;81;21101;-69
2022/08/21 07:38:40;;;;;;;19.82;4.78;;;;;;;25.19;54.15;99970.22;1671572;84;21111;-68
2022/08/21 07:41:17;;;;;;;15.43;4.62;;;;;;;25.13;54.44;99964.55;1688095;83;21143;-72
2022/08/21 07:43:44;;;;;;;17.55;4.35;;;;;;;25.16;54.30;99963.98;1690266;82;21070;-70
2022/08/21 07:46:11;;;;;;;16.50;3.35;;;;;;;25.08;54.58;99968.18;1697620;82;21591;-68
2022/08/21 07:48:37;;;;;;;9.70;2.40;;;;;;;25.01;54.59;99963.63;1697377;84;21555;-70
2022/08/21 07:51:08;;;;;;;16.10;3.30;;;;;;;25.00;54.90;99964.76;1675866;83;21087;-69
2022/08/21 07:53:36;;;;;;;18.25;3.52;;;;;;;25.08;54.42;99967.38;1668197;84;21095;-69
2022/08/21 07:56:05;;;;;;;24.47;4.58;;;;;;;25.15;54.03;99969.99;1657054;84;21028;-71
2022/08/21 07:58:32;;;;;;;20.37;3.60;;;;;;;25.23;53.72;99968.55;1703623;82;21105;-69
2022/08/21 08:00:58;;;;;;;17.20;3.27;;;;;;;25.31;53.75;99962.41;1709452;82;21313;-71
2022/08/21 08:03:25;;;;;;;23.22;4.03;;;;;;;25.41;53.20;99970.98;1699742;83;21016;-70
2022/08/21 08:05:51;;;;;;;22.17;4.20;;;;;;;25.18;52.92;99918.13;1644321;83;21630;-70
2022/08/21 08:08:19;;;;;;;21.73;3.65;;;;;;;25.45;52.50;99962.49;1605118;87;21067;-77
2022/08/21 08:10:46;;;;;;;16.12;3.37;;;;;;;25.44;52.55;99960.30;1620553;87;21081;-71
2022/08/21 08:13:12;;;;;;;18.32;4.08;;;;;;;25.45;52.55;99960.56;1613186;84;21606;-71
2022/08/21 08:15:39;;;;;;;15.18;3.08;;;;;;;25.45;52.42;99969.31;1605317;87;21165;-71
2022/08/21 08:18:06;;;;;;;22.98;4.53;;;;;;;25.45;52.48;99956.47;1612746;87;21551;-71
2022/08/21 08:20:32;;;;;;;25.50;3.42;;;;;;;25.47;52.53;99951.26;1615185;87;21055;-70
2022/08/21 08:22:59;;;;;;;23.80;4.62;;;;;;;25.48;52.65;99949.60;1618363;84;21587;-70
2022/08/21 08:25:27;;;;;;;18.48;3.87;;;;;;;25.48;52.50;99962.44;1627623;87;21026;-69
2022/08/21 08:27:53;;;;;;;14.70;3.55;;;;;;;25.43;52.58;99949.14;1616307;87;21122;-69
2022/08/21 08:30:21;;;;;;;18.70;3.22;;;;;;;25.41;52.77;99945.08;1631995;84;21600;-68
2022/08/21 08:32:49;;;;;;;25.60;4.80;;;;;;;25.45;52.71;99943.39;1612879;87;21083;-71
2022/08/21 08:35:17;;;;;;;19.35;3.08;;;;;;;25.47;52.75;99945.27;1634542;86;21505;-71
2022/08/21 08:37:45;;;;;;;22.95;3.25;;;;;;;25.54;52.50;99942.98;1640213;83;21639;-69
2022/08/21 08:40:41;;;;;;;19.30;3.20;;;;;;;25.53;52.58;99942.70;1647913;85;20973;-72
2022/08/21 08:43:07;;;;;;;16.05;2.92;;;;;;;25.41;52.67;99936.36;1662431;83;21087;-69
2022/08/21 08:45:38;;;;;;;22.52;4.17;;;;;;;25.28;52.90;99933.02;1638284;82;20989;-70
2022/08/21 08:48:09;;;;;;;24.45;3.85;;;;;;;25.24;53.27;99936.06;1614673;87;21473;-69
2022/08/21 08:50:49;;;;;;;21.23;3.85;;;;;;;25.27;53.25;99945.02;1690367;81;21096;-70
2022/08/21 08:53:24;;;;;;;25.17;3.52;;;;;;;25.33;52.76;99946.56;1717765;82;21014;-70
2022/08/21 08:55:52;;;;;;;13.72;3.27;;;;;;;25.41;52.88;99945.91;1709024;82;21063;-69
2022/08/21 08:58:33;;;;;;;23.73;4.08;;;;;;;25.52;52.59;99943.80;1646579;85;21081;-70
2022/08/21 09:01:00;;;;;;;22.48;3.17;;;;;;;25.53;52.28;99944.63;1690560;83;21202;-70
2022/08/21 09:03:28;;;;;;;26.50;3.87;;;;;;;25.50;52.37;99958.86;1682285;83;21020;-68
2022/08/21 09:06:12;;;;;;;14.03;2.45;;;;;;;25.51;51.96;99952.31;1679335;83;21445;-69
2022/08/21 09:08:58;;;;;;;26.27;4.25;;;;;;;25.54;51.93;99951.70;1672177;84;21052;-70
2022/08/21 09:11:31;;;;;;;;;;;;;;;25.58;51.15;99938.54;1632265;83;21514;-69
2022/08/21 09:14:33;;;;;;;14.15;2.95;;;;;;;25.60;51.18;99944.50;1600608;87;20221;-70
2022/08/21 09:17:08;;;;;;;15.45;3.65;;;;;;;25.60;51.20;99951.89;1645204;83;21137;-70
2022/08/21 09:19:55;;;;;;;20.08;3.60;;;;;;;25.66;50.80;99949.33;1704914;84;21022;-72
2022/08/21 09:22:36;;;;;;;17.45;2.58;;;;;;;25.69;50.13;99947.34;1662602;82;21163;-72
2022/08/21 09:25:17;;;;;;;21.05;3.47;;;;;;;25.70;49.43;99941.35;1655907;85;21149;-70
2022/08/21 09:27:43;;;;;;;21.20;3.52;;;;;;;25.68;49.05;99932.09;1687034;83;21087;-69
2022/08/21 09:30:11;;;;;;;14.23;3.35;;;;;;;25.68;49.09;99947.11;1689682;83;21003;-70
2022/08/21 09:32:38;;;;;;;21.42;2.45;;;;;;;25.61;48.06;99948.03;1690756;83;21131;-70
2022/08/21 09:35:19;;;;;;;16.52;2.37;;;;;;;25.52;46.60;99953.91;1618451;83;21179;-70
2022/08/21 09:37:58;;;;;;;23.12;3.80;;;;;;;25.48;46.71;99946.08;1611263;87;21009;-69
2022/08/21 09:40:35;;;;;;;21.77;3.85;;;;;;;25.49;47.04;99950.44;1608894;83;21207;-71
2022/08/21 09:43:16;;;;;;;23.90;3.55;;;;;;;25.58;47.50;99939.07;1588309;89;21069;-69
2022/08/21 09:45:45;;;;;;;17.42;2.27;;;;;;;25.66;47.59;99937.61;1626753;83;21063;-69
2022/08/21 09:48:22;;;;;;;20.40;2.77;;;;;;;25.77;46.68;99931.66;1634447;87;21549;-69
2022/08/21 09:50:49;;;;;;;18.25;2.15;;;;;;;25.88;46.25;99941.86;1690229;82;21102;-71
2022/08/21 09:53:20;;;;;;;17.87;2.22;;;;;;;25.90;45.40;99940.17;1686349;83;21064;-69
2022/08/21 09:58:44;;;;;;;16.50;1.98;;;;;;;25.97;44.84;99930.50;1723612;81;21073;-70
2022/08/21 10:01:23;;;;;;;12.82;1.60;;;;;;;26.05;44.84;99920.83;1725733;81;21089;-70
2022/08/21 10:04:10;;;;;;;15.93;2.90;;;;;;;26.06;44.71;99929.82;1637276;81;21102;-70
2022/08/21 10:06:39;;;;;;;9.75;1.50;;;;;;;25.98;44.64;99930.77;1615491;86;21391;-70
2022/08/21 10:09:12;;;;;;;16.77;2.90;;;;;;;25.89;44.67;99930.38;1639548;86;21069;-70
2022/08/21 10:11:43;;;;;;;14.20;2.80;;;;;;;25.86;45.10;99914.58;1630882;86;21133;-70
2022/08/21 10:14:20;;;;;;;22.77;4.12;;;;;;;25.95;45.38;99929.19;1641952;86;21011;-69
2022/08/21 10:17:10;;;;;;;16.02;2.67;;;;;;;26.10;45.15;99916.61;1647350;84;21062;-70
2022/08/21 10:19:57;;;;;;;23.52;2.52;;;;;;;26.25;44.74;99918.81;1639975;87;21076;-69
2022/08/21 10:23:02;;;;;;;16.23;3.10;;;;;;;26.39;44.11;99929.16;1594392;84;21161;-70
2022/08/21 10:25:42;;;;;;;23.55;3.40;;;;;;;26.43;43.71;99912.44;1621737;82;21144;-70
2022/08/21 10:28:24;;;;;;;17.07;2.67;;;;;;;26.36;44.46;99917.48;1642778;86;21079;-71
2022/08/21 10:30:58;;;;;;;12.23;2.77;;;;;;;26.38;44.76;99926.19;1637825;86;21145;-69
2022/08/21 10:33:54;;;;;;;23.38;2.85;;;;;;;26.46;43.56;99930.13;1610566;82;21003;-70
2022/08/21 10:36:35;;;;;;;20.25;3.05;;;;;;;26.44;43.58;99912.67;1600346;89;21115;-70
2022/08/21 10:39:28;;;;;;;18.85;2.87;;;;;;;26.44;44.15;99914.03;1663088;81;22382;-71
2022/08/21 10:42:08;;;;;;;24.40;3.55;;;;;;;26.50;43.97;99916.91;1670134;83;21044;-72
2022/08/21 10:44:50;;;;;;;24.00;3.12;;;;;;;26.58;43.27;99927.14;1600283;82;21127;-72
2022/08/21 10:47:37;;;;;;;12.13;2.47;;;;;;;26.63;42.90;99926.80;1586328;89;22068;-69
2022/08/21 10:50:46;;;;;;;22.55;3.05;;;;;;;26.66;42.78;99918.00;1617840;82;21204;-69
2022/08/21 10:53:34;;;;;;;13.78;3.22;;;;;;;26.69;42.86;99898.23;1661645;85;21062;-70
2022/08/21 10:56:18;;;;;;;17.73;2.60;;;;;;;26.68;42.38;99913.04;1613131;85;21115;-70
2022/08/21 10:58:53;;;;;;;20.20;2.72;;;;;;;26.62;42.33;99923.27;1624738;87;21097;-70
2022/08/21 11:01:40;;;;;;;17.25;2.35;;;;;;;26.54;42.82;99895.24;1615821;84;21020;-71
2022/08/21 11:04:24;;;;;;;18.87;2.42;;;;;;;26.55;43.05;99892.78;1629538;86;21172;-70
2022/08/21 11:07:16;;;;;;;14.87;1.70;;;;;;;26.60;43.07;99891.34;1622044;86;21129;-70
2022/08/21 11:09:47;;;;;;;12.37;2.22;;;;;;;26.69;42.52;99888.67;1658622;85;21037;-69
2022/08/21 11:12:31;;;;;;;14.00;2.92;;;;;;;26.67;43.02;99893.08;1648769;83;21022;-69
2022/08/21 11:15:14;;;;;;;21.27;2.67;;;;;;;26.66;43.50;99902.41;1604496;87;21146;-70
2022/08/21 11:17:49;;;;;;;20.05;3.67;;;;;;;26.71;43.75;99893.27;1660721;82;21068;-69
2022/08/21 11:20:29;;;;;;;15.88;3.30;;;;;;;26.76;43.61;99887.70;1691943;83;21076;-71
2022/08/21 11:23:13;;;;;;;20.70;2.70;;;;;;;26.78;43.42;99890.94;1676046;84;21045;-71
2022/08/21 11:25:50;;;;;;;18.95;2.90;;;;;;;26.78;43.34;99893.67;1680707;85;21060;-71
2022/08/21 11:28:28;;;;;;;18.42;2.50;;;;;;;26.77;43.42;99875.66;1674413;81;21091;-71
2022/08/21 11:31:29;;;;;;;23.38;2.42;;;;;;;26.81;43.62;99879.39;1674725;84;21166;-75
2022/08/21 11:34:04;;;;;;;16.82;2.47;;;;;;;26.87;43.38;99875.98;1637788;85;21075;-70
2022/08/21 11:36:49;;;;;;;11.93;1.90;;;;;;;26.93;43.07;99882.94;1636430;86;21115;-70
2022/08/21 11:39:45;;;;;;;16.20;2.60;;;;;;;26.96;42.97;99875.50;1639927;86;21139;-69
2022/08/21 11:42:17;;;;;;;13.32;2.15;;;;;;;26.94;42.92;99871.70;1722489;81;21602;-70
2022/08/21 11:45:21;;;;;;;12.15;2.33;;;;;;;26.94;42.96;99889.48;1747085;81;21471;-73
2022/08/21 11:48:20;;;;;;;15.08;3.30;;;;;;;26.96;42.97;99879.03;1711915;81;21596;-70